createdAt,value
2023-04-16T06:25:18.286Z,8.03
2023-04-16T06:27:48.862Z,7.97
2023-04-16T06:30:16.769Z,7.92
2023-04-16T06:32:44.632Z,7.91
2023-04-16T06:35:12.658Z,7.92
2023-04-16T06:37:42.878Z,7.91
2023-04-16T06:40:10.773Z,8.02
2023-04-16T06:42:39.738Z,8.11
2023-04-16T06:45:07.824Z,8.39
2023-04-16T06:47:38.763Z,8.59
2023-04-16T06:50:09.451Z,8.49
2023-04-16T06:52:37.194Z,8.83
2023-04-16T06:55:05.403Z,8.94
2023-04-16T06:57:33.920Z,9.28
2023-04-16T07:00:06.199Z,9.56
2023-04-16T07:02:34.095Z,9.74
2023-04-16T07:05:01.607Z,9.81
2023-04-16T07:07:31.197Z,9.94
2023-04-16T07:09:59.160Z,9.87
2023-04-16T07:12:27.324Z,10.06
2023-04-16T07:14:55.057Z,10.31
2023-04-16T07:17:22.398Z,10.51
2023-04-16T07:19:53.336Z,10.61
2023-04-16T07:22:22.542Z,10.91
2023-04-16T07:25:07.009Z,10.94
2023-04-16T07:27:34.857Z,11.07
2023-04-16T07:30:04.227Z,11.08
2023-04-16T07:32:34.224Z,11.20
2023-04-16T07:35:05.347Z,11.51
2023-04-16T07:37:33.072Z,12.02
2023-04-16T07:40:04.840Z,12.07
2023-04-16T07:42:33.946Z,12.31
2023-04-16T07:45:01.372Z,12.39
2023-04-16T07:47:28.795Z,12.43
2023-04-16T07:49:56.370Z,12.20
2023-04-16T07:52:24.029Z,12.25
2023-04-16T07:54:52.021Z,12.57
2023-04-16T07:57:19.908Z,12.82
2023-04-16T07:59:49.038Z,12.91
2023-04-16T08:02:28.767Z,12.91
2023-04-16T08:04:56.902Z,13.01
2023-04-16T08:07:53.303Z,13.43
2023-04-16T08:10:22.887Z,13.37
2023-04-16T08:12:51.028Z,13.57
2023-04-16T08:15:19.288Z,13.77
2023-04-16T08:17:47.101Z,13.88
2023-04-16T08:20:19.349Z,14.11
2023-04-16T08:22:48.333Z,14.28
2023-04-16T08:25:16.484Z,14.28
2023-04-16T08:27:46.358Z,14.45
2023-04-16T08:30:16.501Z,14.73
2023-04-16T08:32:44.588Z,14.60
2023-04-16T08:35:12.228Z,14.42
2023-04-16T08:37:49.819Z,14.54
2023-04-16T08:40:19.144Z,14.82
2023-04-16T08:42:53.977Z,14.99
2023-04-16T08:45:26.794Z,15.09
2023-04-16T08:48:02.161Z,15.20
2023-04-16T08:50:42.627Z,15.30
2023-04-16T08:53:14.153Z,15.56
2023-04-16T08:55:56.404Z,15.40
2023-04-16T08:58:34.226Z,15.28
2023-04-16T09:01:03.978Z,15.62
2023-04-16T09:03:36.729Z,15.92
2023-04-16T09:06:06.338Z,15.84
2023-04-16T09:11:33.648Z,16.14
2023-04-16T09:14:05.565Z,15.98
2023-04-16T09:16:37.518Z,16.13
2023-04-16T09:19:12.588Z,16.15
2023-04-16T09:22:01.643Z,15.41
2023-04-16T09:24:31.479Z,15.99
2023-04-16T09:27:03.917Z,15.98
2023-04-16T09:29:42.049Z,16.14
2023-04-16T09:33:01.802Z,16.26
2023-04-16T09:36:18.920Z,15.78
2023-04-16T09:42:27.385Z,16.50
2023-04-16T09:49:27.039Z,15.92
2023-04-16T09:52:42.252Z,16.05
2023-04-16T10:11:42.597Z,16.12
2023-04-16T10:14:11.858Z,16.44
2023-04-16T10:26:32.240Z,17.81
2023-04-16T10:34:38.691Z,18.91
2023-04-16T10:46:30.085Z,20.09
2023-04-16T10:53:43.440Z,19.01
2023-04-16T11:14:24.356Z,18.27
2023-04-16T11:17:06.261Z,18.44
2023-04-16T11:19:44.723Z,18.32
2023-04-16T11:22:17.476Z,18.22
2023-04-16T11:25:02.624Z,18.27
2023-04-16T11:28:00.584Z,18.17
2023-04-16T11:32:17.883Z,18.23
2023-04-16T11:35:31.156Z,17.38
2023-04-16T11:44:23.341Z,18.04
2023-04-16T11:53:59.093Z,18.70
2023-04-16T11:56:31.216Z,18.40
2023-04-16T11:59:09.366Z,17.08
2023-04-16T12:01:37.940Z,17.14
2023-04-16T12:07:28.182Z,18.46
2023-04-16T12:10:12.026Z,18.45
2023-04-16T12:12:40.029Z,18.64
2023-04-16T12:15:08.263Z,18.08
2023-04-16T12:17:36.930Z,18.36
2023-04-16T12:20:10.222Z,18.61
2023-04-16T12:22:47.260Z,18.11
2023-04-16T12:25:17.281Z,18.27
2023-04-16T12:27:47.356Z,18.84
2023-04-16T12:30:16.224Z,19.02
2023-04-16T12:32:45.918Z,19.31
2023-04-16T12:35:34.876Z,19.10
2023-04-16T12:40:57.169Z,19.16
2023-04-16T12:43:25.888Z,19.24
2023-04-16T12:45:57.183Z,18.77
2023-04-16T12:48:24.989Z,18.79
2023-04-16T12:50:57.699Z,17.81
2023-04-16T12:53:28.948Z,18.34
2023-04-16T12:55:59.787Z,18.63
2023-04-16T12:58:30.872Z,18.23
2023-04-16T13:01:00.406Z,18.20
2023-04-16T13:03:35.918Z,18.40
2023-04-16T13:06:04.688Z,18.39
2023-04-16T13:08:55.850Z,18.11
2023-04-16T13:11:35.837Z,18.30
2023-04-16T13:14:06.515Z,18.04
2023-04-16T13:20:25.270Z,17.79
2023-04-16T13:23:52.248Z,17.83
2023-04-16T13:29:55.131Z,17.84
2023-04-16T13:33:16.661Z,17.84
2023-04-16T13:36:33.149Z,18.05
2023-04-16T13:46:16.650Z,19.24
2023-04-16T13:49:11.083Z,18.86
2023-04-16T13:52:29.333Z,18.82
2023-04-16T13:55:40.715Z,18.54
2023-04-16T13:58:29.553Z,18.02
2023-04-16T14:01:45.629Z,17.89
2023-04-16T14:04:36.048Z,17.62
2023-04-16T14:07:36.016Z,17.67
2023-04-16T14:10:34.013Z,17.90
2023-04-16T14:13:30.822Z,17.64
2023-04-16T14:16:13.985Z,17.72
2023-04-16T14:19:21.236Z,17.73
2023-04-16T14:22:36.913Z,17.72
2023-04-16T14:26:03.748Z,17.84
2023-04-16T14:29:13.425Z,17.79
2023-04-16T14:35:43.464Z,17.50
2023-04-16T14:42:49.034Z,17.43
2023-04-16T14:46:11.598Z,17.25
2023-04-16T14:53:14.855Z,17.33
2023-04-16T15:02:20.390Z,17.42
2023-04-16T15:09:00.872Z,17.13
2023-04-16T15:12:10.906Z,16.98
2023-04-16T15:15:40.904Z,16.91
2023-04-16T15:18:47.123Z,17.00
2023-04-16T15:22:10.832Z,17.22
2023-04-16T15:25:40.313Z,17.03
2023-04-16T15:28:55.247Z,17.03
2023-04-16T15:32:27.177Z,17.01
2023-04-16T15:35:44.292Z,17.02
2023-04-16T15:39:31.685Z,17.14
2023-04-16T15:42:29.374Z,16.68
2023-04-16T15:45:31.521Z,16.79
2023-04-16T15:49:00.518Z,17.07
2023-04-16T15:52:12.211Z,17.17
2023-04-16T16:05:24.638Z,16.62
2023-04-16T16:08:44.113Z,16.74
2023-04-16T16:12:09.817Z,16.54
2023-04-16T16:15:27.622Z,16.26
2023-04-16T16:22:35.650Z,15.42
2023-04-16T16:31:57.852Z,15.07
2023-04-16T16:34:30.117Z,15.22
2023-04-16T16:38:25.478Z,15.22
2023-04-16T16:41:20.401Z,15.21
2023-04-16T16:44:00.951Z,15.44
2023-04-16T16:57:17.311Z,15.60
2023-04-16T16:59:56.970Z,15.39
2023-04-16T17:02:56.257Z,15.39
2023-04-16T17:08:34.639Z,15.08
2023-04-16T17:09:53.226Z,14.83
2023-04-16T17:12:33.139Z,14.55
2023-04-16T17:15:15.221Z,14.46
2023-04-16T17:18:13.043Z,14.19
2023-04-16T17:21:10.116Z,14.01
2023-04-16T17:24:25.673Z,13.94
2023-04-16T17:27:11.785Z,13.88
2023-04-16T17:29:41.997Z,13.99
2023-04-16T17:32:16.003Z,14.01
2023-04-16T17:34:46.316Z,13.89
2023-04-16T17:37:17.885Z,13.77
2023-04-16T17:40:16.331Z,13.60
2023-04-16T17:43:00.584Z,13.35
2023-04-16T17:45:45.258Z,13.08
2023-04-16T17:48:36.932Z,13.14
2023-04-16T17:52:02.830Z,13.12
2023-04-16T17:55:08.436Z,12.90
2023-04-16T17:57:47.502Z,12.80
2023-04-16T18:00:26.016Z,12.46
2023-04-16T18:02:57.341Z,12.31
2023-04-16T18:05:25.912Z,12.09
2023-04-16T18:07:56.046Z,12.48
2023-04-16T18:10:24.282Z,12.15
2023-04-16T18:12:51.954Z,11.86
2023-04-16T18:15:19.754Z,11.86
2023-04-16T18:17:47.641Z,11.78
2023-04-16T18:20:19.372Z,11.55
2023-04-16T18:22:46.918Z,11.54
2023-04-16T18:25:16.075Z,11.50
2023-04-16T18:27:45.002Z,11.31
2023-04-16T18:33:03.644Z,10.99
2023-04-16T18:35:33.641Z,10.98
2023-04-16T18:38:01.347Z,10.91
2023-04-16T18:40:29.485Z,10.87
2023-04-16T18:42:58.134Z,10.82
2023-04-16T18:45:30.783Z,10.64
2023-04-16T18:47:59.064Z,10.54
2023-04-16T18:50:27.025Z,10.68
2023-04-16T18:52:55.042Z,10.64
2023-04-16T18:55:23.970Z,10.59
2023-04-16T18:57:53.926Z,10.43
2023-04-16T19:00:21.905Z,10.40
2023-04-16T19:02:50.191Z,10.33
2023-04-16T19:05:20.754Z,10.24
2023-04-16T19:07:49.565Z,10.21
2023-04-16T19:10:17.230Z,10.21
2023-04-16T19:12:46.867Z,10.16
2023-04-16T19:15:15.564Z,10.22
2023-04-16T19:17:48.790Z,10.14
2023-04-16T19:20:18.711Z,10.11
2023-04-16T19:22:47.481Z,10.12
2023-04-16T19:25:18.594Z,9.96
2023-04-16T19:28:12.646Z,9.92
2023-04-16T19:30:40.781Z,9.63
2023-04-16T19:33:08.911Z,9.85
2023-04-16T19:35:36.994Z,9.73
2023-04-16T19:38:05.168Z,9.73
2023-04-16T19:40:35.351Z,9.76
2023-04-16T19:43:03.920Z,9.75
2023-04-16T19:45:32.159Z,9.73
2023-04-16T19:48:00.421Z,9.64
2023-04-16T19:50:28.640Z,9.80
2023-04-16T19:52:56.360Z,9.84
2023-04-16T19:55:24.492Z,9.71
2023-04-16T19:57:52.486Z,9.58
2023-04-16T20:00:30.792Z,9.67
2023-04-16T20:02:59.774Z,9.60
2023-04-16T20:05:28.391Z,9.61
2023-04-16T20:07:58.224Z,9.21
2023-04-16T20:10:28.758Z,9.13
2023-04-16T20:12:59.498Z,8.97
2023-04-16T20:15:33.145Z,9.14
2023-04-16T20:18:02.285Z,9.32
2023-04-16T20:20:30.674Z,9.41
2023-04-16T20:23:03.662Z,9.44
2023-04-16T20:25:37.917Z,9.30
2023-04-16T20:28:09.025Z,9.28
2023-04-16T20:30:40.313Z,9.25
2023-04-16T20:33:10.661Z,9.25
2023-04-16T20:35:38.984Z,9.19
2023-04-16T20:38:09.787Z,9.14
2023-04-16T20:41:11.432Z,9.00
2023-04-16T20:43:42.417Z,9.23
2023-04-16T20:46:19.738Z,9.22
2023-04-16T20:48:52.015Z,9.25
2023-04-16T20:51:35.820Z,8.96
2023-04-16T20:54:10.257Z,9.17
2023-04-16T20:56:38.080Z,9.06
2023-04-16T20:59:07.559Z,9.01
2023-04-16T21:03:02.183Z,9.18
2023-04-16T21:05:50.201Z,8.99
2023-04-16T21:08:28.403Z,8.99
2023-04-16T21:11:03.036Z,8.87
2023-04-16T21:14:10.015Z,8.93
2023-04-16T21:19:32.596Z,8.75
2023-04-16T21:22:02.885Z,9.03
2023-04-16T21:24:36.969Z,8.70
2023-04-16T21:27:07.561Z,8.79
2023-04-16T21:29:39.133Z,8.84
2023-04-16T21:32:06.872Z,8.72
2023-04-16T21:34:34.459Z,8.60
2023-04-16T21:37:05.038Z,8.57
2023-04-16T21:39:32.819Z,8.65
2023-04-16T21:42:03.121Z,8.43
2023-04-16T21:44:31.190Z,8.50
2023-04-16T21:47:02.729Z,8.51
2023-04-16T21:49:33.603Z,8.68
2023-04-16T21:52:05.147Z,8.62
2023-04-16T21:54:34.152Z,8.47
2023-04-16T21:57:02.805Z,8.62
2023-04-16T21:59:31.570Z,8.49
2023-04-16T22:02:08.175Z,8.56
2023-04-16T22:04:39.287Z,8.70
2023-04-16T22:07:10.482Z,8.38
2023-04-16T22:09:40.982Z,8.45
2023-04-16T22:12:14.713Z,8.37
2023-04-16T22:14:52.176Z,8.27
2023-04-16T22:17:30.794Z,8.16
2023-04-16T22:20:00.689Z,8.03
2023-04-16T22:22:29.062Z,7.98
2023-04-16T22:25:16.103Z,7.86
2023-04-16T22:27:43.993Z,7.97
2023-04-16T22:30:12.074Z,7.84
2023-04-16T22:32:39.994Z,7.81
2023-04-16T22:35:08.220Z,7.77
2023-04-16T22:37:38.264Z,7.61
2023-04-16T22:40:11.019Z,7.50
2023-04-16T22:42:38.757Z,7.45
2023-04-16T22:45:07.494Z,7.34
2023-04-16T22:47:35.065Z,7.21
2023-04-16T22:50:09.419Z,7.23
2023-04-16T22:52:37.467Z,7.20
2023-04-16T22:55:09.126Z,7.35
2023-04-16T22:57:36.895Z,7.11
2023-04-16T23:00:07.905Z,6.97
2023-04-16T23:02:36.031Z,7.16
2023-04-16T23:05:05.001Z,7.00
2023-04-16T23:07:32.924Z,7.10
2023-04-16T23:10:01.769Z,7.28
2023-04-16T23:12:29.539Z,7.00
2023-04-16T23:15:03.676Z,7.06
2023-04-16T23:17:31.338Z,7.14
2023-04-16T23:19:58.988Z,7.29
2023-04-16T23:22:26.412Z,7.26
2023-04-16T23:24:54.120Z,7.19
2023-04-16T23:27:21.717Z,7.15
2023-04-16T23:29:50.873Z,7.13
2023-04-16T23:32:18.365Z,7.16
2023-04-16T23:34:46.496Z,7.02
2023-04-16T23:37:16.245Z,6.92
2023-04-16T23:39:44.785Z,6.99
2023-04-16T23:42:15.212Z,7.01
2023-04-16T23:44:44.124Z,7.00
2023-04-16T23:47:12.259Z,7.10
2023-04-16T23:49:43.085Z,7.04
2023-04-16T23:52:30.224Z,7.00
2023-04-16T23:55:06.445Z,6.98
2023-04-16T23:57:35.231Z,6.93
